METAR Data
IDs: Format: Raw Decoded Include TAF

Data at: 1923 UTC 14 Dec 2018

KCPT 141915Z AUTO 32022G31KT 8SM -RA BKN012 06/05 A3000 RMK AO2
KCPT 141855Z AUTO 33018G24KT 9SM -RA BKN012 06/05 A3001 RMK AO2
KCPT 141815Z AUTO 33018G28KT 6SM BR BKN011 06/05 A3003 RMK AO2
KCPT 141755Z AUTO 32017G25KT 9SM -RA OVC011 06/05 A3003 RMK AO2
KCPT 141735Z AUTO 33021G29KT 10SM OVC012 06/04 A3004 RMK AO2
KCPT 141715Z AUTO 33021G28KT 10SM OVC012 06/04 A3004 RMK AO2
KCPT 141655Z AUTO 33021G27KT 10SM OVC013 06/04 A3004 RMK AO2
KCPT 141635Z AUTO 33022KT 10SM OVC013 06/04 A3003 RMK AO2
KCPT 141615Z AUTO 33021G32KT 10SM OVC013 05/04 A3003 RMK AO2
KCPT 141555Z AUTO 33019G26KT 10SM OVC013 05/04 A3003 RMK AO2
KCPT 141535Z AUTO 33017G27KT 10SM OVC013 05/04 A3002 RMK AO2
KCPT 141515Z AUTO 33020G28KT 10SM OVC013 05/04 A3002 RMK AO2
KCPT 141455Z AUTO 33022G29KT 10SM OVC012 05/04 A3001 RMK AO2
KCPT 141435Z AUTO 33021KT 10SM OVC012 05/04 A3000 RMK AO2
KCPT 141415Z AUTO 33017G29KT 10SM OVC012 05/04 A3000 RMK AO2
KCPT 141355Z AUTO 33021G28KT 9SM BKN010 OVC013 05/04 A2999 RMK AO2
KCPT 141215Z AUTO 33014G28KT 4SM -UP BKN008 OVC012 05/04 A2994 RMK AO2 LTG DSNT NE AND E
KCPT 141155Z AUTO 32017G28KT 6SM BR OVC010 05/04 A2993 RMK AO2
KCPT 141135Z AUTO 33022G28KT 9SM OVC011 05/04 A2992 RMK AO2
KCPT 141115Z AUTO 32018G29KT 10SM OVC011 05/05 A2991 RMK AO2
KCPT 141055Z AUTO 32017G27KT 3SM BR BKN009 OVC013 05/05 A2990 RMK AO2
KCPT 141035Z AUTO 32019G27KT 3SM BR OVC009 05/05 A2990 RMK AO2
KCPT 141015Z AUTO 33018KT 4SM BR OVC007 06/05 A2989 RMK AO2
KCPT 140955Z AUTO 33017G24KT 4SM BR BKN007 OVC011 06/06 A2988 RMK AO2
KCPT 140935Z AUTO 32016G24KT 5SM BR OVC008 06/06 A2988 RMK AO2
KCPT 140915Z AUTO 32018G26KT 7SM BKN007 OVC012 06/06 A2987 RMK AO2
KCPT 140655Z AUTO 33013G21KT 9SM BKN007 OVC011 06/06 A2985 RMK AO2
KCPT 140635Z AUTO 34014G20KT 10SM OVC008 06/06 A2984 RMK AO2
KCPT 140615Z AUTO 33016KT 8SM OVC008 06/06 A2984 RMK AO2
KCPT 140555Z AUTO 34016KT 4SM BR BKN008 OVC012 06/06 A2984 RMK AO2
KCPT 140535Z AUTO 34015G23KT 4SM -RA BKN009 OVC013 06/06 A2983 RMK AO2
KCPT 140515Z AUTO 34018G24KT 4SM -RA BKN008 OVC013 06/06 A2983 RMK AO2
KCPT 140455Z AUTO 34016KT 2 1/2SM -RA BKN006 OVC010 06/06 A2983 RMK AO2
KCPT 140435Z AUTO 34015G22KT 3SM -RA BKN007 OVC011 06/06 A2982 RMK AO2
KCPT 140415Z AUTO 34015G22KT 3SM -RA BKN007 OVC010 06/06 A2981 RMK AO2
KCPT 140335Z AUTO 35016G27KT 9SM OVC009 07/06 A2980 RMK AO2
KCPT 140315Z AUTO 35014G22KT 10SM OVC011 07/06 A2979 RMK AO2
KCPT 140255Z AUTO 35015G21KT 10SM OVC011 07/06 A2980 RMK AO2
KCPT 140235Z AUTO 35013G18KT 10SM OVC013 07/06 A2980 RMK AO2
KCPT 140215Z AUTO 35017KT 10SM OVC013 07/06 A2979 RMK AO2
KCPT 140155Z AUTO 35015KT 10SM OVC012 07/06 A2979 RMK AO2
KCPT 140135Z AUTO 35016KT 10SM OVC012 07/06 A2979 RMK AO2
KCPT 140115Z AUTO 35013KT 10SM OVC012 07/06 A2979 RMK AO2
KCPT 140055Z AUTO 36014KT 10SM OVC010 07/06 A2978 RMK AO2
KCPT 140035Z AUTO 33009G15KT 10SM OVC011 07/06 A2978 RMK AO2
KCPT 140015Z AUTO 33010KT 10SM OVC014 08/07 A2977 RMK AO2
KCPT 132355Z AUTO 33010KT 10SM SCT010 OVC015 08/07 A2977 RMK AO2 LTG DSNT NE
KCPT 132315Z AUTO 32008G13KT 4SM -DZ BKN007 OVC012 08/08 A2976 RMK AO2
KCPT 132255Z AUTO 27007G14KT 4SM BR BKN008 OVC013 08/08 A2977 RMK AO2
KCPT 132235Z AUTO 28010KT 5SM BR OVC011 09/08 A2976 RMK AO2
KCPT 132215Z AUTO 27011G18KT 5SM BR OVC012 09/08 A2975 RMK AO2
KCPT 132155Z AUTO 28013G18KT 10SM BKN014 BKN019 OVC025 11/09 A2973 RMK AO2 LTG DSNT NE
KCPT 132135Z AUTO 28015G24KT 10SM FEW020 SCT025 BKN031 13/09 A2971 RMK AO2 LTG DSNT N AND NE
KCPT 132115Z AUTO 23015G21KT 10SM SCT032 BKN038 BKN100 15/09 A2969 RMK AO2 LTG DSNT N AND NE
KCPT 132055Z AUTO 22013G19KT 10SM BKN031 BKN100 15/09 A2968 RMK AO2 LTG DSNT N AND NE
KCPT 132035Z AUTO 23010KT 10SM SCT030 SCT100 16/09 A2967 RMK AO2 LTG DSNT N-E
KCPT 132015Z AUTO 25007KT 10SM BKN029 BKN100 16/09 A2967 RMK AO2 LTG DSNT N AND NE
KCPT 131955Z AUTO 24008KT 10SM BKN028 16/10 A2967 RMK AO2 LTG DSNT N AND NE
KCPT 131935Z AUTO 23010KT 10SM FEW090 16/10 A2968 RMK AO2 LTG DSNT N AND NE
KCPT 131915Z AUTO 24007G12KT 10SM BKN090 15/10 A2968 RMK AO2
KCPT 131855Z AUTO 23009KT 10SM BKN033 OVC090 15/10 A2968 RMK AO2 LTG DSNT NE
KCPT 131835Z AUTO 25008G14KT 10SM BKN028 OVC035 16/11 A2969 RMK AO2
KCPT 131815Z AUTO 24011KT 10SM BKN026 OVC034 16/11 A2969 RMK AO2 LTG DSNT NE
KCPT 131755Z AUTO 24011G16KT 10SM BKN026 OVC033 17/12 A2969 RMK AO2
KCPT 131735Z AUTO 23007KT 10SM FEW026 BKN033 BKN100 17/12 A2969 RMK AO2
KCPT 131715Z AUTO 18010KT 10SM FEW025 BKN033 BKN100 18/12 A2970 RMK AO2
KCPT 131615Z AUTO 18007KT 10SM FEW015 SCT021 SCT029 17/16 A2971 RMK AO2
KCPT 131515Z AUTO 18008KT 9SM CLR 16/16 A2972 RMK AO2
KCPT 131455Z AUTO 17008KT 8SM FEW041 FEW047 FEW085 15/15 A2971 RMK AO2
KCPT 131355Z AUTO 16007KT 8SM BKN080 BKN095 15/15 A2971 RMK AO2
KCPT 131335Z AUTO 17008KT 7SM -RA FEW019 SCT080 BKN095 14/14 A2970 RMK AO2
KCPT 131315Z AUTO 17009KT 7SM FEW002 BKN018 OVC100 15/15 A2970 RMK AO2
KCPT 131255Z AUTO 18009KT 6SM BR BKN002 OVC017 15/15 A2970 RMK AO2 LTG DSNT N AND S
KCPT 131235Z AUTO 16007KT 4SM BR SCT003 BKN018 BKN095 14/14 A2969 RMK AO2
KCPT 131215Z AUTO 14008KT 6SM BR SCT100 BKN120 14/14 A2968 RMK AO2
KCPT 131155Z AUTO 17007KT 7SM BKN100 BKN120 14/14 A2967 RMK AO2
KCPT 131135Z AUTO 18008KT 7SM BKN095 14/14 A2968 RMK AO2
KCPT 131115Z AUTO 18008KT 7SM FEW011 15/15 A2968 RMK AO2
KCPT 131055Z AUTO 19008KT 6SM BR BKN012 15/15 A2968 RMK AO2 LTG DSNT NE AND E
KCPT 131035Z AUTO 19008KT 5SM BR FEW009 OVC013 15/15 A2969 RMK AO2
KCPT 131015Z AUTO 19009KT 6SM BR FEW007 OVC012 15/15 A2970 RMK AO2 LTG DSNT NE AND E
KCPT 130955Z AUTO 17009KT 6SM BR FEW006 OVC012 15/15 A2971 RMK AO2 LTG DSNT NE
KCPT 130935Z AUTO 18006KT 6SM BR BKN006 OVC013 15/15 A2972 RMK AO2 LTG DSNT ALQDS
KCPT 130915Z AUTO 17008KT 7SM OVC005 15/15 A2974 RMK AO2 LTG DSNT ALQDS
KCPT 130855Z AUTO 6/08333306G12KT 8SM OVC005 15/15 A2974 RMK AO2 LTG DSNT NW-NE
KCPT 130835Z AUTO 17007G16KT 9SM OVC006 15/15 A2976 RMK AO2
KCPT 130815Z AUTO 17008G15KT 10SM OVC007 15/15 A2977 RMK AO2 LTG DSNT NW
KCPT 130755Z AUTO 18011KT 10SM BKN007 OVC014 15/15 A2977 RMK AO2 LTG DSNT NW
KCPT 130735Z AUTO 17012KT 10SM OVC013 15/15 A2977 RMK AO2